sensor_id;sensor_type;location;lat;lon;timestamp;pressure;altitude;pressure_sealevel;temperature;humidity
37764;BME280;23602;51.084;7.090;2023-04-28T00:02:13;99840.41;;;10.32;100.00
37764;BME280;23602;51.084;7.090;2023-04-28T00:04:41;99840.19;;;10.34;100.00
37764;BME280;23602;51.084;7.090;2023-04-28T00:07:07;99835.84;;;10.33;100.00
37764;BME280;23602;51.084;7.090;2023-04-28T00:09:32;99827.41;;;10.29;100.00
37764;BME280;23602;51.084;7.090;2023-04-28T00:11:58;99822.03;;;10.29;100.00
37764;BME280;23602;51.084;7.090;2023-04-28T00:14:24;99820.78;;;10.25;100.00
37764;BME280;23602;51.084;7.090;2023-04-28T00:16:50;99813.78;;;10.24;100.00
37764;BME280;23602;51.084;7.090;2023-04-28T00:19:15;99821.22;;;10.22;100.00
37764;BME280;23602;51.084;7.090;2023-04-28T00:21:43;99814.41;;;10.20;100.00
37764;BME280;23602;51.084;7.090;2023-04-28T00:24:09;99811.09;;;10.24;100.00
37764;BME280;23602;51.084;7.090;2023-04-28T00:26:34;99806.72;;;10.30;100.00
37764;BME280;23602;51.084;7.090;2023-04-28T00:29:00;99796.97;;;10.35;100.00
37764;BME280;23602;51.084;7.090;2023-04-28T00:31:28;99797.16;;;10.40;100.00
37764;BME280;23602;51.084;7.090;2023-04-28T00:33:53;99789.53;;;10.37;100.00
37764;BME280;23602;51.084;7.090;2023-04-28T00:36:18;99790.06;;;10.21;100.00
37764;BME280;23602;51.084;7.090;2023-04-28T00:38:44;99782.38;;;10.25;100.00
37764;BME280;23602;51.084;7.090;2023-04-28T00:41:09;99781.59;;;10.18;100.00
37764;BME280;23602;51.084;7.090;2023-04-28T00:43:48;99771.50;;;10.13;100.00
37764;BME280;23602;51.084;7.090;2023-04-28T00:46:19;99762.59;;;10.19;100.00
37764;BME280;23602;51.084;7.090;2023-04-28T00:48:45;99767.75;;;10.21;100.00
37764;BME280;23602;51.084;7.090;2023-04-28T00:51:13;99768.56;;;10.21;100.00
37764;BME280;23602;51.084;7.090;2023-04-28T00:53:40;99775.38;;;10.17;100.00
37764;BME280;23602;51.084;7.090;2023-04-28T00:56:05;99777.69;;;10.07;100.00
37764;BME280;23602;51.084;7.090;2023-04-28T00:58:31;99780.59;;;10.05;100.00
37764;BME280;23602;51.084;7.090;2023-04-28T01:01:04;99774.41;;;10.05;100.00
37764;BME280;23602;51.084;7.090;2023-04-28T01:03:34;99762.47;;;10.01;100.00
37764;BME280;23602;51.084;7.090;2023-04-28T01:06:01;99768.22;;;10.04;100.00
37764;BME280;23602;51.084;7.090;2023-04-28T01:08:27;99766.59;;;10.03;100.00
37764;BME280;23602;51.084;7.090;2023-04-28T01:10:53;99765.97;;;10.01;100.00
37764;BME280;23602;51.084;7.090;2023-04-28T01:13:19;99760.16;;;10.04;100.00
37764;BME280;23602;51.084;7.090;2023-04-28T01:15:45;99769.88;;;10.05;100.00
37764;BME280;23602;51.084;7.090;2023-04-28T01:18:11;99759.97;;;9.99;100.00
37764;BME280;23602;51.084;7.090;2023-04-28T01:20:40;99761.22;;;10.03;100.00
37764;BME280;23602;51.084;7.090;2023-04-28T01:23:10;99763.13;;;9.96;100.00
37764;BME280;23602;51.084;7.090;2023-04-28T01:25:35;99781.91;;;9.90;100.00
37764;BME280;23602;51.084;7.090;2023-04-28T01:28:01;99767.91;;;9.88;100.00
37764;BME280;23602;51.084;7.090;2023-04-28T01:30:26;99770.75;;;9.93;100.00
37764;BME280;23602;51.084;7.090;2023-04-28T01:32:52;99772.41;;;9.94;100.00
37764;BME280;23602;51.084;7.090;2023-04-28T01:35:17;99777.34;;;9.97;100.00
37764;BME280;23602;51.084;7.090;2023-04-28T01:37:42;99784.78;;;9.95;100.00
37764;BME280;23602;51.084;7.090;2023-04-28T01:40:08;99775.72;;;9.96;100.00
37764;BME280;23602;51.084;7.090;2023-04-28T01:42:35;99781.50;;;9.93;100.00
37764;BME280;23602;51.084;7.090;2023-04-28T01:45:00;99783.56;;;9.91;100.00
37764;BME280;23602;51.084;7.090;2023-04-28T01:47:27;99776.56;;;9.90;100.00
37764;BME280;23602;51.084;7.090;2023-04-28T01:49:52;99782.78;;;9.84;100.00
37764;BME280;23602;51.084;7.090;2023-04-28T01:52:18;99788.59;;;9.81;100.00
37764;BME280;23602;51.084;7.090;2023-04-28T01:54:46;99783.63;;;9.78;100.00
37764;BME280;23602;51.084;7.090;2023-04-28T01:57:11;99790.84;;;9.77;100.00
37764;BME280;23602;51.084;7.090;2023-04-28T01:59:37;99791.28;;;9.74;100.00
37764;BME280;23602;51.084;7.090;2023-04-28T02:02:02;99791.72;;;9.65;100.00
37764;BME280;23602;51.084;7.090;2023-04-28T02:04:27;99810.75;;;9.57;100.00
37764;BME280;23602;51.084;7.090;2023-04-28T02:06:53;99802.28;;;9.60;100.00
37764;BME280;23602;51.084;7.090;2023-04-28T02:09:18;99808.47;;;9.53;100.00
37764;BME280;23602;51.084;7.090;2023-04-28T02:11:43;99817.16;;;9.56;100.00
37764;BME280;23602;51.084;7.090;2023-04-28T02:14:09;99813.41;;;9.57;100.00
37764;BME280;23602;51.084;7.090;2023-04-28T02:16:35;99824.75;;;9.59;100.00
37764;BME280;23602;51.084;7.090;2023-04-28T02:19:00;99824.16;;;9.57;100.00
37764;BME280;23602;51.084;7.090;2023-04-28T02:21:27;99827.06;;;9.55;100.00
37764;BME280;23602;51.084;7.090;2023-04-28T02:23:52;99818.81;;;9.43;100.00
37764;BME280;23602;51.084;7.090;2023-04-28T02:26:18;99822.13;;;9.45;100.00
37764;BME280;23602;51.084;7.090;2023-04-28T02:28:43;99812.44;;;9.44;100.00
37764;BME280;23602;51.084;7.090;2023-04-28T02:31:09;99821.09;;;9.46;100.00
37764;BME280;23602;51.084;7.090;2023-04-28T02:33:35;99814.69;;;9.47;100.00
37764;BME280;23602;51.084;7.090;2023-04-28T02:36:00;99792.84;;;9.31;100.00
37764;BME280;23602;51.084;7.090;2023-04-28T02:38:26;99788.75;;;9.35;100.00
37764;BME280;23602;51.084;7.090;2023-04-28T02:40:58;99807.69;;;9.33;100.00
37764;BME280;23602;51.084;7.090;2023-04-28T02:43:24;99808.34;;;9.29;100.00
37764;BME280;23602;51.084;7.090;2023-04-28T02:45:49;99801.94;;;9.23;100.00
37764;BME280;23602;51.084;7.090;2023-04-28T02:48:14;99797.22;;;9.25;100.00
37764;BME280;23602;51.084;7.090;2023-04-28T02:50:40;99798.66;;;9.21;100.00
37764;BME280;23602;51.084;7.090;2023-04-28T02:53:05;99807.31;;;9.23;100.00
37764;BME280;23602;51.084;7.090;2023-04-28T02:55:30;99807.94;;;9.25;100.00
37764;BME280;23602;51.084;7.090;2023-04-28T02:57:57;99792.28;;;9.22;100.00
37764;BME280;23602;51.084;7.090;2023-04-28T03:00:22;99797.84;;;9.14;100.00
37764;BME280;23602;51.084;7.090;2023-04-28T03:02:47;99806.50;;;9.16;100.00
37764;BME280;23602;51.084;7.090;2023-04-28T03:05:13;99807.75;;;9.07;100.00
37764;BME280;23602;51.084;7.090;2023-04-28T03:07:38;99805.69;;;9.09;100.00
37764;BME280;23602;51.084;7.090;2023-04-28T03:10:04;99810.22;;;9.09;100.00
37764;BME280;23602;51.084;7.090;2023-04-28T03:12:29;99803.22;;;9.14;100.00
37764;BME280;23602;51.084;7.090;2023-04-28T03:14:55;99797.63;;;9.16;100.00
37764;BME280;23602;51.084;7.090;2023-04-28T03:17:20;99796.00;;;9.15;100.00
37764;BME280;23602;51.084;7.090;2023-04-28T03:19:46;99798.25;;;9.11;100.00
37764;BME280;23602;51.084;7.090;2023-04-28T03:22:11;99800.94;;;9.11;100.00
37764;BME280;23602;51.084;7.090;2023-04-28T03:24:36;99805.28;;;9.12;100.00
37764;BME280;23602;51.084;7.090;2023-04-28T03:27:02;99801.56;;;9.13;100.00
37764;BME280;23602;51.084;7.090;2023-04-28T03:29:29;99799.47;;;9.15;100.00
37764;BME280;23602;51.084;7.090;2023-04-28T03:31:55;99781.34;;;9.17;100.00
37764;BME280;23602;51.084;7.090;2023-04-28T03:34:21;99788.97;;;9.20;100.00
37764;BME280;23602;51.084;7.090;2023-04-28T03:36:46;99776.59;;;9.13;100.00
37764;BME280;23602;51.084;7.090;2023-04-28T03:39:12;99786.72;;;9.11;100.00
37764;BME280;23602;51.084;7.090;2023-04-28T03:41:37;99771.88;;;9.08;100.00
37764;BME280;23602;51.084;7.090;2023-04-28T03:44:02;99759.91;;;9.11;100.00
37764;BME280;23602;51.084;7.090;2023-04-28T03:46:28;99757.03;;;9.12;100.00
37764;BME280;23602;51.084;7.090;2023-04-28T03:48:53;99763.63;;;9.10;100.00
37764;BME280;23602;51.084;7.090;2023-04-28T03:51:21;99761.75;;;9.10;100.00
37764;BME280;23602;51.084;7.090;2023-04-28T03:53:46;99769.78;;;9.10;100.00
37764;BME280;23602;51.084;7.090;2023-04-28T03:56:12;99774.13;;;9.11;100.00
37764;BME280;23602;51.084;7.090;2023-04-28T03:58:37;99777.03;;;9.10;100.00
37764;BME280;23602;51.084;7.090;2023-04-28T04:01:02;99767.38;;;9.02;100.00
37764;BME280;23602;51.084;7.090;2023-04-28T04:03:29;99763.84;;;9.02;100.00
37764;BME280;23602;51.084;7.090;2023-04-28T04:05:55;99762.59;;;9.04;100.00
37764;BME280;23602;51.084;7.090;2023-04-28T04:08:20;99767.56;;;9.07;100.00
37764;BME280;23602;51.084;7.090;2023-04-28T04:10:45;99750.03;;;9.05;100.00
37764;BME280;23602;51.084;7.090;2023-04-28T04:13:11;99739.91;;;9.00;100.00
37764;BME280;23602;51.084;7.090;2023-04-28T04:15:37;99737.69;;;8.97;100.00
37764;BME280;23602;51.084;7.090;2023-04-28T04:18:02;99739.53;;;8.97;100.00
37764;BME280;23602;51.084;7.090;2023-04-28T04:20:28;99731.50;;;8.97;100.00
37764;BME280;23602;51.084;7.090;2023-04-28T04:22:53;99711.50;;;8.99;100.00
37764;BME280;23602;51.084;7.090;2023-04-28T04:25:18;99699.72;;;9.00;100.00
37764;BME280;23602;51.084;7.090;2023-04-28T04:27:44;99692.31;;;9.02;100.00
37764;BME280;23602;51.084;7.090;2023-04-28T04:30:09;99694.16;;;9.02;100.00
37764;BME280;23602;51.084;7.090;2023-04-28T04:32:35;99683.03;;;8.98;100.00
37764;BME280;23602;51.084;7.090;2023-04-28T04:35:01;99677.47;;;9.00;100.00
37764;BME280;23602;51.084;7.090;2023-04-28T04:37:26;99685.72;;;8.98;100.00
37764;BME280;23602;51.084;7.090;2023-04-28T04:39:52;99698.09;;;8.99;100.00
37764;BME280;23602;51.084;7.090;2023-04-28T04:42:17;99718.69;;;8.99;100.00
37764;BME280;23602;51.084;7.090;2023-04-28T04:44:43;99720.78;;;8.97;100.00
37764;BME280;23602;51.084;7.090;2023-04-28T04:47:08;99712.09;;;9.01;100.00
37764;BME280;23602;51.084;7.090;2023-04-28T04:49:35;99707.53;;;9.08;100.00
37764;BME280;23602;51.084;7.090;2023-04-28T04:52:00;99709.19;;;9.09;100.00
37764;BME280;23602;51.084;7.090;2023-04-28T04:54:26;99714.56;;;9.09;100.00
37764;BME280;23602;51.084;7.090;2023-04-28T04:56:52;99717.84;;;9.11;100.00
37764;BME280;23602;51.084;7.090;2023-04-28T04:59:17;99717.44;;;9.14;100.00
37764;BME280;23602;51.084;7.090;2023-04-28T05:01:43;99721.97;;;9.14;100.00
37764;BME280;23602;51.084;7.090;2023-04-28T05:04:08;99715.78;;;9.13;100.00
37764;BME280;23602;51.084;7.090;2023-04-28T05:06:34;99711.00;;;9.15;100.00
37764;BME280;23602;51.084;7.090;2023-04-28T05:08:59;99700.94;;;9.17;100.00
37764;BME280;23602;51.084;7.090;2023-04-28T05:11:25;99694.75;;;9.17;100.00
37764;BME280;23602;51.084;7.090;2023-04-28T05:13:51;99691.03;;;9.18;100.00
37764;BME280;23602;51.084;7.090;2023-04-28T05:16:18;99681.75;;;9.20;100.00
37764;BME280;23602;51.084;7.090;2023-04-28T05:18:44;99698.66;;;9.14;100.00
37764;BME280;23602;51.084;7.090;2023-04-28T05:21:12;99698.44;;;9.16;100.00
37764;BME280;23602;51.084;7.090;2023-04-28T05:23:37;99707.13;;;9.18;100.00
37764;BME280;23602;51.084;7.090;2023-04-28T05:26:03;99699.88;;;9.18;100.00
37764;BME280;23602;51.084;7.090;2023-04-28T05:28:29;99700.91;;;9.24;100.00
37764;BME280;23602;51.084;7.090;2023-04-28T05:30:54;99682.34;;;9.22;100.00
37764;BME280;23602;51.084;7.090;2023-04-28T05:33:20;99690.59;;;9.27;100.00
37764;BME280;23602;51.084;7.090;2023-04-28T05:35:45;99687.47;;;9.30;100.00
37764;BME280;23602;51.084;7.090;2023-04-28T05:38:11;99690.34;;;9.29;100.00
37764;BME280;23602;51.084;7.090;2023-04-28T05:40:36;99695.72;;;9.35;100.00
37764;BME280;23602;51.084;7.090;2023-04-28T05:43:01;99707.47;;;9.34;100.00
37764;BME280;23602;51.084;7.090;2023-04-28T05:45:27;99709.53;;;9.26;100.00
37764;BME280;23602;51.084;7.090;2023-04-28T05:47:52;99709.16;;;9.22;100.00
37764;BME280;23602;51.084;7.090;2023-04-28T05:50:18;99711.63;;;9.24;100.00
37764;BME280;23602;51.084;7.090;2023-04-28T05:52:44;99710.19;;;9.21;100.00
37764;BME280;23602;51.084;7.090;2023-04-28T05:55:10;99725.03;;;9.24;100.00
37764;BME280;23602;51.084;7.090;2023-04-28T05:57:35;99728.34;;;9.19;100.00
37764;BME280;23602;51.084;7.090;2023-04-28T06:00:01;99735.13;;;9.15;100.00
37764;BME280;23602;51.084;7.090;2023-04-28T06:02:26;99730.59;;;9.22;100.00
37764;BME280;23602;51.084;7.090;2023-04-28T06:04:52;99729.16;;;9.26;100.00
37764;BME280;23602;51.084;7.090;2023-04-28T06:07:17;99732.63;;;9.40;100.00
37764;BME280;23602;51.084;7.090;2023-04-28T06:09:52;99742.69;;;9.44;100.00
37764;BME280;23602;51.084;7.090;2023-04-28T06:12:17;99744.13;;;9.47;100.00
37764;BME280;23602;51.084;7.090;2023-04-28T06:14:43;99736.69;;;9.56;100.00
37764;BME280;23602;51.084;7.090;2023-04-28T06:17:09;99734.97;;;9.68;100.00
37764;BME280;23602;51.084;7.090;2023-04-28T06:19:34;99730.38;;;9.75;100.00
37764;BME280;23602;51.084;7.090;2023-04-28T06:22:03;99724.19;;;9.81;100.00
37764;BME280;23602;51.084;7.090;2023-04-28T06:24:28;99718.09;;;9.92;100.00
37764;BME280;23602;51.084;7.090;2023-04-28T06:26:54;99700.91;;;9.99;100.00
37764;BME280;23602;51.084;7.090;2023-04-28T06:29:19;99687.63;;;10.11;100.00
37764;BME280;23602;51.084;7.090;2023-04-28T06:31:49;99692.16;;;10.17;100.00
37764;BME280;23602;51.084;7.090;2023-04-28T06:34:16;99683.31;;;10.17;100.00
37764;BME280;23602;51.084;7.090;2023-04-28T06:36:47;99685.59;;;10.13;100.00
37764;BME280;23602;51.084;7.090;2023-04-28T06:39:12;99681.69;;;10.09;100.00
37764;BME280;23602;51.084;7.090;2023-04-28T06:41:40;99682.91;;;10.13;100.00
37764;BME280;23602;51.084;7.090;2023-04-28T06:44:06;99686.22;;;10.08;100.00
37764;BME280;23602;51.084;7.090;2023-04-28T06:46:32;99677.53;;;10.13;100.00
37764;BME280;23602;51.084;7.090;2023-04-28T06:48:57;99696.84;;;10.28;100.00
37764;BME280;23602;51.084;7.090;2023-04-28T06:51:25;99696.56;;;10.36;100.00
37764;BME280;23602;51.084;7.090;2023-04-28T06:53:51;99687.25;;;10.39;100.00
37764;BME280;23602;51.084;7.090;2023-04-28T06:56:17;99676.75;;;10.37;100.00
37764;BME280;23602;51.084;7.090;2023-04-28T06:58:45;99671.72;;;10.41;100.00
37764;BME280;23602;51.084;7.090;2023-04-28T07:01:12;99655.63;;;10.41;100.00
37764;BME280;23602;51.084;7.090;2023-04-28T07:03:38;99662.28;;;10.56;100.00
37764;BME280;23602;51.084;7.090;2023-04-28T07:06:04;99658.66;;;10.69;100.00
37764;BME280;23602;51.084;7.090;2023-04-28T07:08:29;99662.91;;;10.76;100.00
37764;BME280;23602;51.084;7.090;2023-04-28T07:10:55;99663.19;;;10.68;100.00
37764;BME280;23602;51.084;7.090;2023-04-28T07:13:20;99654.25;;;10.74;100.00
37764;BME280;23602;51.084;7.090;2023-04-28T07:15:46;99672.03;;;10.94;100.00
37764;BME280;23602;51.084;7.090;2023-04-28T07:18:12;99655.16;;;11.05;100.00
37764;BME280;23602;51.084;7.090;2023-04-28T07:20:37;99655.59;;;11.20;100.00
37764;BME280;23602;51.084;7.090;2023-04-28T07:23:06;99653.78;;;11.32;100.00
37764;BME280;23602;51.084;7.090;2023-04-28T07:25:34;99645.97;;;11.30;100.00
37764;BME280;23602;51.084;7.090;2023-04-28T07:28:01;99649.78;;;11.23;100.00
37764;BME280;23602;51.084;7.090;2023-04-28T07:30:27;99663.00;;;11.24;100.00
37764;BME280;23602;51.084;7.090;2023-04-28T07:32:53;99663.59;;;11.26;100.00
37764;BME280;23602;51.084;7.090;2023-04-28T07:35:20;99656.41;;;11.38;100.00
37764;BME280;23602;51.084;7.090;2023-04-28T07:37:47;99655.72;;;11.43;100.00
37764;BME280;23602;51.084;7.090;2023-04-28T07:40:13;99654.00;;;11.49;100.00
37764;BME280;23602;51.084;7.090;2023-04-28T07:42:40;99649.47;;;11.49;100.00
37764;BME280;23602;51.084;7.090;2023-04-28T07:45:06;99646.91;;;11.54;100.00
37764;BME280;23602;51.084;7.090;2023-04-28T07:47:32;99657.19;;;11.57;100.00
37764;BME280;23602;51.084;7.090;2023-04-28T07:49:57;99647.69;;;11.73;100.00
37764;BME280;23602;51.084;7.090;2023-04-28T07:52:30;99655.69;;;11.79;100.00
37764;BME280;23602;51.084;7.090;2023-04-28T07:55:06;99640.06;;;11.70;100.00
37764;BME280;23602;51.084;7.090;2023-04-28T07:57:34;99633.53;;;11.77;100.00
37764;BME280;23602;51.084;7.090;2023-04-28T08:00:02;99646.91;;;11.84;100.00
37764;BME280;23602;51.084;7.090;2023-04-28T08:02:40;99646.91;;;11.84;100.00
37764;BME280;23602;51.084;7.090;2023-04-28T08:05:06;99648.53;;;11.85;100.00
37764;BME280;23602;51.084;7.090;2023-04-28T08:07:41;99661.06;;;11.79;100.00
37764;BME280;23602;51.084;7.090;2023-04-28T08:10:10;99659.44;;;11.60;100.00
37764;BME280;23602;51.084;7.090;2023-04-28T08:12:41;99661.09;;;11.61;100.00
37764;BME280;23602;51.084;7.090;2023-04-28T08:15:09;99657.13;;;11.64;100.00
37764;BME280;23602;51.084;7.090;2023-04-28T08:17:37;99665.75;;;11.54;100.00
37764;BME280;23602;51.084;7.090;2023-04-28T08:20:03;99670.44;;;11.59;100.00
37764;BME280;23602;51.084;7.090;2023-04-28T08:22:39;99666.97;;;11.70;100.00
37764;BME280;23602;51.084;7.090;2023-04-28T08:25:14;99672.16;;;11.71;100.00
37764;BME280;23602;51.084;7.090;2023-04-28T08:27:49;99666.19;;;11.69;100.00
37764;BME280;23602;51.084;7.090;2023-04-28T08:30:35;99667.81;;;11.70;100.00
37764;BME280;23602;51.084;7.090;2023-04-28T08:33:12;99669.16;;;11.79;100.00
37764;BME280;23602;51.084;7.090;2023-04-28T08:35:40;99673.47;;;11.80;100.00
37764;BME280;23602;51.084;7.090;2023-04-28T08:38:08;99662.63;;;11.87;100.00
37764;BME280;23602;51.084;7.090;2023-04-28T08:41:05;99661.22;;;11.96;100.00
37764;BME280;23602;51.084;7.090;2023-04-28T08:43:45;99662.31;;;12.07;100.00
37764;BME280;23602;51.084;7.090;2023-04-28T08:46:15;99658.69;;;12.13;100.00
37764;BME280;23602;51.084;7.090;2023-04-28T08:48:48;99660.00;;;12.22;100.00
37764;BME280;23602;51.084;7.090;2023-04-28T08:51:24;99666.84;;;12.71;100.00
37764;BME280;23602;51.084;7.090;2023-04-28T08:53:55;99656.53;;;13.42;100.00
37764;BME280;23602;51.084;7.090;2023-04-28T08:56:36;99632.00;;;13.44;100.00
37764;BME280;23602;51.084;7.090;2023-04-28T08:59:09;99627.53;;;13.38;100.00
37764;BME280;23602;51.084;7.090;2023-04-28T09:01:38;99618.56;;;13.20;100.00
37764;BME280;23602;51.084;7.090;2023-04-28T09:04:03;99643.94;;;13.19;100.00
37764;BME280;23602;51.084;7.090;2023-04-28T09:06:31;99652.34;;;13.23;100.00
37764;BME280;23602;51.084;7.090;2023-04-28T09:08:56;99664.19;;;13.34;100.00
37764;BME280;23602;51.084;7.090;2023-04-28T09:11:50;99647.41;;;13.32;100.00
37764;BME280;23602;51.084;7.090;2023-04-28T09:14:23;99644.81;;;13.37;100.00
37764;BME280;23602;51.084;7.090;2023-04-28T09:16:58;99655.94;;;13.40;100.00
37764;BME280;23602;51.084;7.090;2023-04-28T09:19:32;99650.53;;;13.40;100.00
37764;BME280;23602;51.084;7.090;2023-04-28T09:21:58;99646.84;;;13.29;100.00
37764;BME280;23602;51.084;7.090;2023-04-28T09:24:42;99646.63;;;13.19;100.00
37764;BME280;23602;51.084;7.090;2023-04-28T09:27:27;99648.88;;;13.11;100.00
37764;BME280;23602;51.084;7.090;2023-04-28T09:30:06;99643.69;;;13.09;100.00
37764;BME280;23602;51.084;7.090;2023-04-28T09:32:34;99651.00;;;13.09;100.00
37764;BME280;23602;51.084;7.090;2023-04-28T09:35:04;99659.06;;;13.20;100.00
37764;BME280;23602;51.084;7.090;2023-04-28T09:37:32;99657.75;;;13.35;100.00
37764;BME280;23602;51.084;7.090;2023-04-28T09:40:05;99656.91;;;13.34;100.00
37764;BME280;23602;51.084;7.090;2023-04-28T09:45:05;99666.78;;;13.28;100.00
37764;BME280;23602;51.084;7.090;2023-04-28T09:47:41;99671.22;;;13.35;100.00
37764;BME280;23602;51.084;7.090;2023-04-28T09:50:07;99669.44;;;13.40;100.00
37764;BME280;23602;51.084;7.090;2023-04-28T09:52:36;99674.50;;;13.37;100.00
37764;BME280;23602;51.084;7.090;2023-04-28T09:55:02;99677.81;;;13.27;100.00
37764;BME280;23602;51.084;7.090;2023-04-28T09:57:36;99676.31;;;13.19;100.00
37764;BME280;23602;51.084;7.090;2023-04-28T10:00:21;99679.13;;;13.13;100.00
37764;BME280;23602;51.084;7.090;2023-04-28T10:03:00;99681.81;;;13.01;100.00
37764;BME280;23602;51.084;7.090;2023-04-28T10:05:28;99696.00;;;12.97;100.00
37764;BME280;23602;51.084;7.090;2023-04-28T10:07:59;99689.81;;;12.96;100.00
37764;BME280;23602;51.084;7.090;2023-04-28T10:10:34;99703.88;;;12.98;100.00
37764;BME280;23602;51.084;7.090;2023-04-28T10:13:08;99705.50;;;12.99;100.00
37764;BME280;23602;51.084;7.090;2023-04-28T10:15:49;99706.69;;;13.03;100.00
37764;BME280;23602;51.084;7.090;2023-04-28T10:18:26;99712.66;;;13.05;100.00
37764;BME280;23602;51.084;7.090;2023-04-28T10:20:54;99712.53;;;13.12;100.00
37764;BME280;23602;51.084;7.090;2023-04-28T10:26:08;99706.94;;;13.13;100.00
37764;BME280;23602;51.084;7.090;2023-04-28T10:28:50;99709.38;;;13.15;100.00
37764;BME280;23602;51.084;7.090;2023-04-28T10:31:19;99708.69;;;13.19;100.00
37764;BME280;23602;51.084;7.090;2023-04-28T10:34:05;99703.72;;;13.28;100.00
37764;BME280;23602;51.084;7.090;2023-04-28T10:36:51;99707.94;;;13.36;100.00
37764;BME280;23602;51.084;7.090;2023-04-28T10:39:29;99715.94;;;13.42;100.00
37764;BME280;23602;51.084;7.090;2023-04-28T10:41:59;99715.78;;;13.49;100.00
37764;BME280;23602;51.084;7.090;2023-04-28T10:47:05;99716.94;;;13.53;100.00
37764;BME280;23602;51.084;7.090;2023-04-28T11:00:59;99717.75;;;13.53;100.00
37764;BME280;23602;51.084;7.090;2023-04-28T11:06:23;99697.56;;;13.56;100.00
37764;BME280;23602;51.084;7.090;2023-04-28T11:08:53;99696.50;;;13.57;100.00
37764;BME280;23602;51.084;7.090;2023-04-28T11:11:29;99699.78;;;13.59;100.00
37764;BME280;23602;51.084;7.090;2023-04-28T11:14:45;99708.13;;;13.57;100.00
37764;BME280;23602;51.084;7.090;2023-04-28T11:16:52;99708.94;;;13.58;100.00
37764;BME280;23602;51.084;7.090;2023-04-28T11:19:19;99703.53;;;13.58;100.00
37764;BME280;23602;51.084;7.090;2023-04-28T11:22:00;99698.97;;;13.58;100.00
37764;BME280;23602;51.084;7.090;2023-04-28T11:24:39;99700.94;;;13.63;100.00
37764;BME280;23602;51.084;7.090;2023-04-28T11:27:09;99704.91;;;13.72;100.00
37764;BME280;23602;51.084;7.090;2023-04-28T11:29:38;99706.41;;;13.79;100.00
37764;BME280;23602;51.084;7.090;2023-04-28T11:32:04;99702.59;;;13.92;100.00
37764;BME280;23602;51.084;7.090;2023-04-28T11:34:29;99708.38;;;14.12;100.00
37764;BME280;23602;51.084;7.090;2023-04-28T11:36:58;99698.66;;;14.28;100.00
37764;BME280;23602;51.084;7.090;2023-04-28T11:39:34;99683.94;;;14.35;100.00
37764;BME280;23602;51.084;7.090;2023-04-28T11:42:09;99670.03;;;14.43;100.00
37764;BME280;23602;51.084;7.090;2023-04-28T11:44:35;99667.56;;;14.59;100.00
37764;BME280;23602;51.084;7.090;2023-04-28T11:47:04;99666.53;;;14.81;100.00
37764;BME280;23602;51.084;7.090;2023-04-28T11:49:52;99664.06;;;14.96;100.00
37764;BME280;23602;51.084;7.090;2023-04-28T11:52:29;99652.72;;;14.99;100.00
37764;BME280;23602;51.084;7.090;2023-04-28T11:54:55;99658.50;;;15.08;100.00
37764;BME280;23602;51.084;7.090;2023-04-28T11:57:26;99648.22;;;15.27;100.00
37764;BME280;23602;51.084;7.090;2023-04-28T12:00:11;99625.22;;;15.29;100.00
37764;BME280;23602;51.084;7.090;2023-04-28T12:02:47;99612.81;;;15.33;100.00
37764;BME280;23602;51.084;7.090;2023-04-28T12:05:23;99616.34;;;15.34;100.00
37764;BME280;23602;51.084;7.090;2023-04-28T12:07:50;99625.84;;;15.36;100.00
37764;BME280;23602;51.084;7.090;2023-04-28T12:10:41;99632.41;;;15.40;100.00
37764;BME280;23602;51.084;7.090;2023-04-28T12:13:28;99633.16;;;15.57;100.00
37764;BME280;23602;51.084;7.090;2023-04-28T12:16:35;99628.78;;;15.78;100.00
37764;BME280;23602;51.084;7.090;2023-04-28T12:18:58;99645.97;;;15.89;100.00
37764;BME280;23602;51.084;7.090;2023-04-28T12:21:37;99628.84;;;16.15;100.00
37764;BME280;23602;51.084;7.090;2023-04-28T12:26:43;99603.66;;;16.93;100.00
37764;BME280;23602;51.084;7.090;2023-04-28T12:29:08;99577.47;;;17.24;100.00
37764;BME280;23602;51.084;7.090;2023-04-28T12:31:47;99565.81;;;17.43;100.00
37764;BME280;23602;51.084;7.090;2023-04-28T12:34:13;99565.84;;;17.48;100.00
37764;BME280;23602;51.084;7.090;2023-04-28T12:36:39;99570.13;;;17.39;100.00
37764;BME280;23602;51.084;7.090;2023-04-28T12:39:05;99572.03;;;17.24;100.00
37764;BME280;23602;51.084;7.090;2023-04-28T12:41:35;99561.63;;;17.05;100.00
37764;BME280;23602;51.084;7.090;2023-04-28T12:44:07;99554.03;;;17.02;100.00
37764;BME280;23602;51.084;7.090;2023-04-28T12:46:33;99561.41;;;17.17;100.00
37764;BME280;23602;51.084;7.090;2023-04-28T12:48:59;99565.78;;;17.23;100.00
37764;BME280;23602;51.084;7.090;2023-04-28T12:51:27;99555.47;;;17.30;100.00
37764;BME280;23602;51.084;7.090;2023-04-28T12:54:04;99557.44;;;17.55;100.00
37764;BME280;23602;51.084;7.090;2023-04-28T12:56:30;99535.72;;;17.65;100.00
37764;BME280;23602;51.084;7.090;2023-04-28T12:58:59;99534.91;;;17.75;100.00
37764;BME280;23602;51.084;7.090;2023-04-28T13:01:26;99531.13;;;17.76;100.00
37764;BME280;23602;51.084;7.090;2023-04-28T13:03:52;99531.13;;;17.76;100.00
37764;BME280;23602;51.084;7.090;2023-04-28T13:06:17;99529.22;;;17.76;100.00
37764;BME280;23602;51.084;7.090;2023-04-28T13:08:43;99530.03;;;17.87;100.00
37764;BME280;23602;51.084;7.090;2023-04-28T13:11:13;99528.69;;;17.99;100.00
37764;BME280;23602;51.084;7.090;2023-04-28T13:13:52;99518.63;;;17.85;100.00
37764;BME280;23602;51.084;7.090;2023-04-28T13:16:30;99527.03;;;17.98;100.00
37764;BME280;23602;51.084;7.090;2023-04-28T13:19:03;99520.22;;;18.11;100.00
37764;BME280;23602;51.084;7.090;2023-04-28T13:21:56;99514.78;;;18.11;100.00
37764;BME280;23602;51.084;7.090;2023-04-28T13:24:45;99509.91;;;18.03;100.00
37764;BME280;23602;51.084;7.090;2023-04-28T13:27:21;99519.16;;;17.92;100.00
37764;BME280;23602;51.084;7.090;2023-04-28T13:29:59;99516.44;;;17.66;100.00